Pagina principale
METAR-TAF:

METAR-TAF

Aeroporti :

Luni

Sarzana, Italia

latitudine: 44-05N, longitudine: 009-59E, altezza: 9 m

METAR: mancante

Ora: 19:10 (17:10 UTC)

Previsione

Il bollettino è stato emesso 30 ore e 10 minuti fa, alle 11:00 UTC
Previsione valida dal 16 alle 12 UTC al 16 alle 21 UTC
Vento 6 kt da nord-ovest
Visibilità 10 km o più
nessuna nube inferiore a 1500 m e nessun cumulonembo

TAF: LIQW 161100Z 1612/1621 32006KT CAVOK

Osservazioni e previsioni meteorologiche di più di 4000 aeroporti (messaggi METAR e TAF).

Le stazioni disponibili sono rappresentate dai dischi gialli e rossi sulla carta.

Puntare il mouse per vedere il nome della stazione.

Clicca sopra per visualizzare le osservazioni e previsioni meteorologiche.

Per cambiare la mappa : fare clic sui pulsanti verdi con una croce nera per ingrandire, il pulsante verde con un trattino per diminuire, o sulla freccia verde per le mappe adiacenti.


METAR-TAF: